createdAt,value
2017-06-20T00:02:09.708Z,23.45
2017-06-20T00:04:38.781Z,23.45
2017-06-20T00:07:07.854Z,23.41
2017-06-20T00:09:36.931Z,23.38
2017-06-20T00:12:06.951Z,23.34
2017-06-20T00:14:35.995Z,23.30
2017-06-20T00:17:05.085Z,23.26
2017-06-20T00:19:34.159Z,23.21
2017-06-20T00:22:03.216Z,23.20
2017-06-20T00:24:32.296Z,23.17
2017-06-20T00:27:01.340Z,23.14
2017-06-20T00:29:30.551Z,23.09
2017-06-20T00:31:59.641Z,23.06
2017-06-20T00:34:28.725Z,23.01
2017-06-20T00:36:57.791Z,22.96
2017-06-20T00:39:26.863Z,22.91
2017-06-20T00:41:55.968Z,22.89
2017-06-20T00:44:25.035Z,22.85
2017-06-20T00:46:54.112Z,22.80
2017-06-20T00:49:23.168Z,22.69
2017-06-20T00:51:52.276Z,22.63
2017-06-20T00:54:22.198Z,22.57
2017-06-20T00:56:51.533Z,22.48
2017-06-20T00:59:20.664Z,22.41
2017-06-20T01:01:49.773Z,22.38
2017-06-20T01:04:18.848Z,22.29
2017-06-20T01:06:47.960Z,22.28
2017-06-20T01:09:16.995Z,22.23
2017-06-20T01:11:46.064Z,22.22
2017-06-20T01:14:15.886Z,22.17
2017-06-20T01:16:45.724Z,22.13
2017-06-20T01:19:14.833Z,22.08
2017-06-20T01:21:43.900Z,22.02
2017-06-20T01:24:13.725Z,22.01
2017-06-20T01:26:42.825Z,22.00
2017-06-20T01:29:12.167Z,21.98
2017-06-20T01:31:41.213Z,21.95
2017-06-20T01:34:10.281Z,21.98
2017-06-20T01:36:40.116Z,21.99
2017-06-20T01:39:09.251Z,22.01
2017-06-20T01:41:38.311Z,21.97
2017-06-20T01:44:07.983Z,21.96
2017-06-20T01:46:37.027Z,21.93
2017-06-20T01:49:06.089Z,21.92
2017-06-20T01:51:35.926Z,21.91
2017-06-20T01:54:05.008Z,21.87
2017-06-20T01:56:34.081Z,21.82
2017-06-20T01:59:03.944Z,21.81
2017-06-20T02:01:33.024Z,21.76
2017-06-20T02:04:02.104Z,21.67
2017-06-20T02:06:31.187Z,21.59
2017-06-20T02:09:01.018Z,21.60
2017-06-20T02:11:30.107Z,21.58
2017-06-20T02:13:59.945Z,21.58
2017-06-20T02:16:29.032Z,21.58
2017-06-20T02:18:58.092Z,21.56
2017-06-20T02:21:27.934Z,21.51
2017-06-20T02:23:57.008Z,21.51
2017-06-20T02:26:26.084Z,21.47
2017-06-20T02:28:55.148Z,21.47
2017-06-20T02:31:24.235Z,21.44
2017-06-20T02:33:53.331Z,21.43
2017-06-20T02:36:22.398Z,21.45
2017-06-20T02:38:51.453Z,21.42
2017-06-20T02:41:20.532Z,21.36
2017-06-20T02:43:49.583Z,21.30
2017-06-20T02:46:18.674Z,21.23
2017-06-20T02:48:48.486Z,21.22
2017-06-20T02:51:17.542Z,21.16
2017-06-20T02:53:47.626Z,21.13
2017-06-20T02:56:16.684Z,21.10
2017-06-20T02:58:46.548Z,21.02
2017-06-20T03:01:15.832Z,21.03
2017-06-20T03:03:45.105Z,20.99
2017-06-20T03:06:14.985Z,20.97
2017-06-20T03:08:44.055Z,20.97
2017-06-20T03:11:14.953Z,20.92
2017-06-20T03:13:44.036Z,20.91
2017-06-20T03:16:13.853Z,20.84
2017-06-20T03:18:43.686Z,20.82
2017-06-20T03:21:12.796Z,20.77
2017-06-20T03:23:41.864Z,20.69
2017-06-20T03:26:10.962Z,20.60
2017-06-20T03:28:40.795Z,20.52
2017-06-20T03:31:09.849Z,20.53
2017-06-20T03:33:39.944Z,20.50
2017-06-20T03:36:09.022Z,20.48
2017-06-20T03:38:38.109Z,20.51
2017-06-20T03:41:07.426Z,20.53
2017-06-20T03:43:36.695Z,20.57
2017-06-20T03:46:05.796Z,20.54
2017-06-20T03:48:34.883Z,20.55
2017-06-20T03:51:03.965Z,20.59
2017-06-20T03:53:33.778Z,20.64
2017-06-20T03:56:02.868Z,20.64
2017-06-20T03:58:32.776Z,20.66
2017-06-20T04:01:02.633Z,20.72
2017-06-20T04:03:31.726Z,20.74
2017-06-20T04:06:00.793Z,20.75
2017-06-20T04:08:29.863Z,20.80
2017-06-20T04:10:58.928Z,20.85
2017-06-20T04:13:27.996Z,20.83
2017-06-20T04:15:57.055Z,20.85
2017-06-20T04:18:26.868Z,20.94
2017-06-20T04:21:02.256Z,20.99
2017-06-20T04:23:31.324Z,20.99
2017-06-20T04:26:00.395Z,21.01
2017-06-20T04:28:29.485Z,21.01
2017-06-20T04:30:58.536Z,21.01
2017-06-20T04:33:27.624Z,21.05
2017-06-20T04:35:56.712Z,21.07
2017-06-20T04:38:26.038Z,21.10
2017-06-20T04:40:55.167Z,21.16
2017-06-20T04:43:24.220Z,21.15
2017-06-20T04:45:53.277Z,21.24
2017-06-20T04:48:23.136Z,21.27
2017-06-20T04:50:52.224Z,21.32
2017-06-20T04:53:21.279Z,21.39
2017-06-20T04:55:51.108Z,21.45
2017-06-20T04:58:20.166Z,21.53
2017-06-20T05:00:49.263Z,21.61
2017-06-20T05:03:18.332Z,21.69
2017-06-20T05:05:47.394Z,21.76
2017-06-20T05:08:16.475Z,21.84
2017-06-20T05:10:45.563Z,21.91
2017-06-20T05:13:15.397Z,21.89
2017-06-20T05:15:44.576Z,21.96
2017-06-20T05:18:14.419Z,21.93
2017-06-20T05:20:43.452Z,21.92
2017-06-20T05:23:12.885Z,21.95
2017-06-20T05:25:41.936Z,22.01
2017-06-20T05:28:11.901Z,22.06
2017-06-20T05:30:40.974Z,22.12
2017-06-20T05:33:10.039Z,22.15
2017-06-20T05:35:39.137Z,22.21
2017-06-20T05:38:08.216Z,22.29
2017-06-20T05:40:37.267Z,22.41
2017-06-20T05:43:07.120Z,22.59
2017-06-20T05:45:36.177Z,22.74
2017-06-20T05:48:06.016Z,22.83
2017-06-20T05:50:35.075Z,22.93
2017-06-20T05:53:04.901Z,23.09
2017-06-20T05:55:34.724Z,23.28
2017-06-20T05:58:03.792Z,23.44
2017-06-20T06:00:33.656Z,23.62
2017-06-20T06:03:02.728Z,23.81
2017-06-20T06:05:32.064Z,24.08
2017-06-20T06:08:01.132Z,24.33
2017-06-20T06:10:30.176Z,24.45
2017-06-20T06:12:59.274Z,24.70
2017-06-20T06:15:28.335Z,24.91
2017-06-20T06:17:57.404Z,25.06
2017-06-20T06:20:27.208Z,25.24
2017-06-20T06:22:57.029Z,25.44
2017-06-20T06:25:26.133Z,25.63
2017-06-20T06:27:55.244Z,25.79
2017-06-20T06:30:24.309Z,25.87
2017-06-20T06:32:53.387Z,25.90
2017-06-20T06:35:23.228Z,26.06
2017-06-20T06:37:52.363Z,26.29
2017-06-20T06:40:21.536Z,26.37
2017-06-20T06:42:50.585Z,26.48
2017-06-20T06:45:20.404Z,26.60
2017-06-20T06:47:50.266Z,26.71
2017-06-20T06:50:19.332Z,26.76
2017-06-20T06:52:48.406Z,26.79
2017-06-20T06:55:18.314Z,26.94
2017-06-20T06:57:47.346Z,27.12
2017-06-20T07:00:16.401Z,27.34
2017-06-20T07:02:45.505Z,27.51
2017-06-20T07:05:15.324Z,27.69
2017-06-20T07:07:44.384Z,27.84
2017-06-20T07:10:14.509Z,27.99
2017-06-20T07:12:43.545Z,27.87
2017-06-20T07:15:12.625Z,27.65
2017-06-20T07:17:42.447Z,27.82
2017-06-20T07:20:11.538Z,27.86
2017-06-20T07:22:40.992Z,28.04
2017-06-20T07:25:11.059Z,28.24
2017-06-20T07:27:40.076Z,28.36
2017-06-20T07:30:10.005Z,28.57
2017-06-20T07:32:39.067Z,28.82
2017-06-20T07:35:08.128Z,28.99
2017-06-20T07:37:37.215Z,29.22
2017-06-20T07:40:06.572Z,29.23
2017-06-20T07:42:35.628Z,29.13
2017-06-20T07:45:05.480Z,29.10
2017-06-20T07:47:34.553Z,29.17
2017-06-20T07:50:04.376Z,29.12
2017-06-20T07:52:33.460Z,29.05
2017-06-20T07:55:03.324Z,29.06
2017-06-20T07:57:32.424Z,29.14
2017-06-20T08:00:01.519Z,29.08
2017-06-20T08:02:30.575Z,29.11
2017-06-20T08:04:59.703Z,28.99
2017-06-20T08:07:28.815Z,28.94
2017-06-20T08:09:57.887Z,28.92
2017-06-20T08:12:26.990Z,28.78
2017-06-20T08:14:56.052Z,28.62
2017-06-20T08:17:25.136Z,28.60
2017-06-20T08:19:54.209Z,28.68
2017-06-20T08:22:24.031Z,28.79
2017-06-20T08:24:53.870Z,28.84
2017-06-20T08:27:22.961Z,28.82
2017-06-20T08:29:52.020Z,28.81
2017-06-20T08:32:21.116Z,28.79
2017-06-20T08:34:50.340Z,28.90
2017-06-20T08:37:25.372Z,28.90
2017-06-20T08:39:55.325Z,28.92
2017-06-20T08:42:24.390Z,28.87
2017-06-20T08:44:53.510Z,28.89
2017-06-20T08:47:22.562Z,28.97
2017-06-20T08:49:52.425Z,29.07
2017-06-20T08:52:21.499Z,29.20
2017-06-20T08:54:50.551Z,29.15
2017-06-20T08:57:19.648Z,29.29
2017-06-20T08:59:48.744Z,29.38
2017-06-20T09:02:17.811Z,29.37
2017-06-20T09:04:46.941Z,29.47
2017-06-20T09:07:17.028Z,29.65
2017-06-20T09:09:46.105Z,29.66
2017-06-20T09:12:15.158Z,29.56
2017-06-20T09:14:44.988Z,29.60
2017-06-20T09:17:14.096Z,29.72
2017-06-20T09:19:43.155Z,29.77
2017-06-20T09:22:12.312Z,29.72
2017-06-20T09:24:41.394Z,29.70
2017-06-20T09:27:10.537Z,29.72
2017-06-20T09:29:39.612Z,29.66
2017-06-20T09:32:08.725Z,29.79
2017-06-20T09:34:37.811Z,29.94
2017-06-20T09:37:06.860Z,30.05
2017-06-20T09:39:35.947Z,29.99
2017-06-20T09:42:05.081Z,30.01
2017-06-20T09:44:34.143Z,29.99
2017-06-20T09:47:03.230Z,30.06
2017-06-20T09:49:32.406Z,30.00
2017-06-20T09:52:02.255Z,29.91
2017-06-20T09:54:31.329Z,29.89
2017-06-20T09:57:00.404Z,29.99
2017-06-20T09:59:29.469Z,30.15
2017-06-20T10:01:58.544Z,30.29
2017-06-20T10:04:27.607Z,30.37
2017-06-20T10:06:56.682Z,30.46
2017-06-20T10:09:26.529Z,30.55
2017-06-20T10:11:55.583Z,30.65
2017-06-20T10:14:24.644Z,30.81
2017-06-20T10:16:53.736Z,30.72
2017-06-20T10:19:22.812Z,30.53
2017-06-20T10:21:51.896Z,30.42
2017-06-20T10:24:21.707Z,30.26
2017-06-20T10:26:50.767Z,30.16
2017-06-20T10:29:19.841Z,29.98
2017-06-20T10:31:48.927Z,29.91
2017-06-20T10:34:18.295Z,30.13
2017-06-20T10:36:47.364Z,30.32
2017-06-20T10:39:16.447Z,30.46
2017-06-20T10:41:45.544Z,30.48
2017-06-20T10:44:14.584Z,30.40
2017-06-20T10:46:43.660Z,30.25
2017-06-20T10:49:13.476Z,30.18
2017-06-20T10:51:42.576Z,30.08
2017-06-20T10:54:12.400Z,30.16
2017-06-20T10:56:41.572Z,30.19
2017-06-20T10:59:10.652Z,30.09
2017-06-20T11:01:39.738Z,30.07
2017-06-20T11:04:08.831Z,30.05
2017-06-20T11:06:37.872Z,30.14
2017-06-20T11:09:06.942Z,30.16
2017-06-20T11:11:36.812Z,30.22
2017-06-20T11:14:05.911Z,30.07
2017-06-20T11:16:35.004Z,30.02
2017-06-20T11:19:04.061Z,29.99
2017-06-20T11:21:33.174Z,29.96
2017-06-20T11:24:02.356Z,29.94
2017-06-20T11:26:31.447Z,29.97
2017-06-20T11:29:01.245Z,29.99
2017-06-20T11:31:31.096Z,30.05
2017-06-20T11:34:00.165Z,30.03
2017-06-20T11:36:30.081Z,30.07
2017-06-20T11:38:59.160Z,29.99
2017-06-20T11:41:28.999Z,30.03
2017-06-20T11:43:58.200Z,30.09
2017-06-20T11:46:27.275Z,30.15
2017-06-20T11:48:56.356Z,30.20
2017-06-20T11:51:25.417Z,30.11
2017-06-20T11:53:54.499Z,30.16
2017-06-20T11:56:23.595Z,30.21
2017-06-20T11:58:52.652Z,30.25
2017-06-20T12:01:22.518Z,30.19
2017-06-20T12:03:51.589Z,30.18
2017-06-20T12:06:21.476Z,30.20
2017-06-20T12:08:51.309Z,30.28
2017-06-20T12:11:20.395Z,30.39
2017-06-20T12:13:49.476Z,30.37
2017-06-20T12:16:19.300Z,30.35
2017-06-20T12:18:48.369Z,30.42
2017-06-20T12:21:17.436Z,30.46
2017-06-20T12:23:46.504Z,30.49
2017-06-20T12:26:15.595Z,30.49
2017-06-20T12:28:44.648Z,30.41
2017-06-20T12:31:14.507Z,30.43
2017-06-20T12:33:43.576Z,30.48
2017-06-20T12:36:12.665Z,30.34
2017-06-20T12:38:42.500Z,30.38
2017-06-20T12:41:11.617Z,30.37
2017-06-20T12:43:40.714Z,30.39
2017-06-20T12:46:09.830Z,30.41
2017-06-20T12:48:38.896Z,30.35
2017-06-20T12:51:08.019Z,30.31
2017-06-20T12:53:37.067Z,30.22
2017-06-20T12:56:06.935Z,30.23
2017-06-20T12:58:35.974Z,30.30
2017-06-20T13:01:05.068Z,30.28
2017-06-20T13:03:34.125Z,30.27
2017-06-20T13:06:04.864Z,30.33
2017-06-20T13:08:33.947Z,30.32
2017-06-20T13:11:03.008Z,30.33
2017-06-20T13:13:32.064Z,30.40
2017-06-20T13:16:01.873Z,30.42
2017-06-20T13:18:31.715Z,30.43
2017-06-20T13:21:00.787Z,30.44
2017-06-20T13:23:29.837Z,30.51
2017-06-20T13:25:58.933Z,30.53
2017-06-20T13:28:27.989Z,30.51
2017-06-20T13:30:57.797Z,30.53
2017-06-20T13:33:26.876Z,30.60
2017-06-20T13:35:56.709Z,30.53
2017-06-20T13:38:25.761Z,30.48
2017-06-20T13:40:54.861Z,30.50
2017-06-20T13:43:23.947Z,30.49
2017-06-20T13:45:53.046Z,30.47
2017-06-20T13:48:22.106Z,30.56
2017-06-20T13:50:51.188Z,30.64
2017-06-20T13:53:20.264Z,30.70
2017-06-20T13:55:49.345Z,30.74
2017-06-20T13:58:19.185Z,30.76
2017-06-20T14:00:48.261Z,30.77
2017-06-20T14:03:18.115Z,30.77
2017-06-20T14:05:47.186Z,30.78
2017-06-20T14:08:16.257Z,30.75
2017-06-20T14:10:45.324Z,30.69
2017-06-20T14:13:14.392Z,30.75
2017-06-20T14:15:43.509Z,30.83
2017-06-20T14:18:12.585Z,30.91
2017-06-20T14:20:41.652Z,30.95
2017-06-20T14:23:11.464Z,30.88
2017-06-20T14:25:40.564Z,30.76
2017-06-20T14:28:09.655Z,30.73
2017-06-20T14:30:39.467Z,30.66
2017-06-20T14:33:09.330Z,30.60
2017-06-20T14:35:38.383Z,30.55
2017-06-20T14:38:07.457Z,30.55
2017-06-20T14:40:37.300Z,30.49
2017-06-20T14:43:06.431Z,30.46
2017-06-20T14:45:35.526Z,30.49
2017-06-20T14:48:04.607Z,30.57
2017-06-20T14:50:33.704Z,30.61
2017-06-20T14:53:02.804Z,30.60
2017-06-20T14:55:31.837Z,30.62
2017-06-20T14:58:01.681Z,30.66
2017-06-20T15:00:30.772Z,30.60
2017-06-20T15:02:59.848Z,30.54
2017-06-20T15:05:28.940Z,30.39
2017-06-20T15:07:58.005Z,30.24
2017-06-20T15:10:27.968Z,30.18
2017-06-20T15:12:57.114Z,30.12
2017-06-20T15:15:26.161Z,30.04
2017-06-20T15:17:55.229Z,29.97
2017-06-20T15:20:25.193Z,29.86
2017-06-20T15:22:54.229Z,29.80
2017-06-20T15:25:23.637Z,29.83
2017-06-20T15:27:52.720Z,29.89
2017-06-20T15:30:21.800Z,29.90
2017-06-20T15:32:50.861Z,29.91
2017-06-20T15:35:19.956Z,29.92
2017-06-20T15:37:49.035Z,29.95
2017-06-20T15:40:18.135Z,29.86
2017-06-20T15:42:47.316Z,29.81
2017-06-20T15:45:16.389Z,29.86
2017-06-20T15:47:45.484Z,29.80
2017-06-20T15:50:14.595Z,29.76
2017-06-20T15:52:43.690Z,29.70
2017-06-20T15:55:12.769Z,29.70
2017-06-20T15:57:41.855Z,29.63
2017-06-20T16:00:10.952Z,29.63
2017-06-20T16:02:40.024Z,29.53
2017-06-20T16:05:09.125Z,29.38
2017-06-20T16:07:38.215Z,29.23
2017-06-20T16:10:07.288Z,29.21
2017-06-20T16:12:36.384Z,29.19
2017-06-20T16:15:05.454Z,29.21
2017-06-20T16:17:34.565Z,29.21
2017-06-20T16:20:03.637Z,29.24
2017-06-20T16:22:32.700Z,29.27
2017-06-20T16:25:02.021Z,29.18
2017-06-20T16:27:31.093Z,29.08
2017-06-20T16:30:00.201Z,29.10
2017-06-20T16:32:29.271Z,29.14
2017-06-20T16:34:58.350Z,29.15
2017-06-20T16:37:27.443Z,29.07
2017-06-20T16:39:56.474Z,29.05
2017-06-20T16:42:25.543Z,28.97
2017-06-20T16:44:54.588Z,28.91
2017-06-20T16:47:23.677Z,28.91
2017-06-20T16:49:52.720Z,28.87
2017-06-20T16:52:21.767Z,28.74
2017-06-20T16:54:50.834Z,28.69
2017-06-20T16:57:19.893Z,28.68
2017-06-20T16:59:48.960Z,28.70
2017-06-20T17:02:18.017Z,28.68
2017-06-20T17:04:47.075Z,28.65
2017-06-20T17:07:16.161Z,28.59
2017-06-20T17:09:45.259Z,28.56
2017-06-20T17:12:14.358Z,28.52
2017-06-20T17:14:43.417Z,28.45
2017-06-20T17:17:12.642Z,28.38
2017-06-20T17:19:41.688Z,28.30
2017-06-20T17:22:10.806Z,28.21
2017-06-20T17:24:39.903Z,28.16
2017-06-20T17:27:08.991Z,28.12
2017-06-20T17:29:38.071Z,28.04
2017-06-20T17:32:07.148Z,27.98
2017-06-20T17:34:36.220Z,27.96
2017-06-20T17:37:05.287Z,27.94
2017-06-20T17:39:34.395Z,27.93
2017-06-20T17:42:03.444Z,27.89
2017-06-20T17:44:32.531Z,27.84
2017-06-20T17:47:01.587Z,27.78
2017-06-20T17:49:30.631Z,27.67
2017-06-20T17:51:59.763Z,27.65
2017-06-20T17:54:28.891Z,27.60
2017-06-20T17:56:58.619Z,27.55
2017-06-20T17:59:27.695Z,27.50
2017-06-20T18:01:56.743Z,27.43
2017-06-20T18:04:25.900Z,27.37
2017-06-20T18:06:54.966Z,27.31
2017-06-20T18:09:24.017Z,27.21
2017-06-20T18:11:53.111Z,27.09
2017-06-20T18:14:22.203Z,27.07
2017-06-20T18:16:51.257Z,26.98
2017-06-20T18:19:20.318Z,26.90
2017-06-20T18:21:49.484Z,26.84
2017-06-20T18:24:18.557Z,26.76
2017-06-20T18:26:47.616Z,26.66
2017-06-20T18:29:16.666Z,26.69
2017-06-20T18:31:45.751Z,26.72
2017-06-20T18:34:14.852Z,26.72
2017-06-20T18:36:43.927Z,26.64
2017-06-20T18:39:12.990Z,26.54
2017-06-20T18:41:42.111Z,26.55
2017-06-20T18:44:11.196Z,26.58
2017-06-20T18:46:40.298Z,26.58
2017-06-20T18:49:09.348Z,26.55
2017-06-20T18:51:38.458Z,26.49
2017-06-20T18:54:07.577Z,26.37
2017-06-20T18:56:36.671Z,26.31
2017-06-20T18:59:05.721Z,26.20
2017-06-20T19:01:34.780Z,26.23
2017-06-20T19:04:03.866Z,26.24
2017-06-20T19:06:32.898Z,26.22
2017-06-20T19:09:01.951Z,26.09
2017-06-20T19:11:31.025Z,25.93
2017-06-20T19:14:00.091Z,25.79
2017-06-20T19:16:29.165Z,25.60
2017-06-20T19:18:58.252Z,25.48
2017-06-20T19:21:27.327Z,25.35
2017-06-20T19:23:56.400Z,25.28
2017-06-20T19:26:26.214Z,25.28
2017-06-20T19:28:56.266Z,25.26
2017-06-20T19:31:25.332Z,25.14
2017-06-20T19:33:55.181Z,25.08
2017-06-20T19:36:24.292Z,24.96
2017-06-20T19:38:53.362Z,24.84
2017-06-20T19:41:22.420Z,24.69
2017-06-20T19:43:52.865Z,24.58
2017-06-20T19:46:21.924Z,24.50
2017-06-20T19:48:50.996Z,24.41
2017-06-20T19:51:20.079Z,24.38
2017-06-20T19:53:49.176Z,24.33
2017-06-20T19:56:18.288Z,24.32
2017-06-20T19:58:47.359Z,24.34
2017-06-20T20:01:16.415Z,24.28
2017-06-20T20:03:46.280Z,24.24
2017-06-20T20:06:15.340Z,24.23
2017-06-20T20:08:44.419Z,24.16
2017-06-20T20:11:14.267Z,24.10
2017-06-20T20:13:43.336Z,23.98
2017-06-20T20:16:13.182Z,23.98
2017-06-20T20:18:42.252Z,23.95
2017-06-20T20:21:11.345Z,23.87
2017-06-20T20:23:41.161Z,23.82
2017-06-20T20:26:10.235Z,23.75
2017-06-20T20:28:40.084Z,23.72
2017-06-20T20:31:09.127Z,23.67
2017-06-20T20:33:38.197Z,23.58
2017-06-20T20:36:07.311Z,23.48
2017-06-20T20:38:36.335Z,23.37
2017-06-20T20:41:06.435Z,23.30
2017-06-20T20:43:35.511Z,23.19
2017-06-20T20:46:04.580Z,23.14
2017-06-20T20:48:33.712Z,23.04
2017-06-20T20:51:02.814Z,22.96
2017-06-20T20:53:31.869Z,22.94
2017-06-20T20:56:00.932Z,22.92
2017-06-20T20:58:30.037Z,22.84
2017-06-20T21:00:59.876Z,22.80
2017-06-20T21:03:28.924Z,22.74
2017-06-20T21:05:58.772Z,22.68
2017-06-20T21:08:27.922Z,22.58
2017-06-20T21:10:57.780Z,22.51
2017-06-20T21:13:26.835Z,22.41
2017-06-20T21:15:55.898Z,22.34
2017-06-20T21:18:24.983Z,22.29
2017-06-20T21:20:54.064Z,22.20
2017-06-20T21:23:23.117Z,22.11
2017-06-20T21:25:52.963Z,22.01
2017-06-20T21:28:22.043Z,21.93
2017-06-20T21:30:51.125Z,21.86
2017-06-20T21:33:20.956Z,21.80
2017-06-20T21:35:50.036Z,21.73
2017-06-20T21:38:19.871Z,21.65
2017-06-20T21:40:48.934Z,21.56
2017-06-20T21:43:18.011Z,21.50
2017-06-20T21:45:47.072Z,21.43
2017-06-20T21:48:16.144Z,21.41
2017-06-20T21:50:45.212Z,21.36
2017-06-20T21:53:15.046Z,21.33
2017-06-20T21:55:44.902Z,21.28
2017-06-20T21:58:13.976Z,21.24
2017-06-20T22:00:43.021Z,21.20
2017-06-20T22:03:12.108Z,21.17
2017-06-20T22:05:41.165Z,21.12
2017-06-20T22:08:10.249Z,21.12
2017-06-20T22:10:39.315Z,21.07
2017-06-20T22:13:09.152Z,21.02
2017-06-20T22:15:38.222Z,20.95
2017-06-20T22:18:07.552Z,20.87
2017-06-20T22:20:36.627Z,20.80
2017-06-20T22:23:05.700Z,20.71
2017-06-20T22:25:34.801Z,20.64
2017-06-20T22:28:04.914Z,20.58
2017-06-20T22:30:35.063Z,20.54
2017-06-20T22:33:04.128Z,20.49
2017-06-20T22:35:33.215Z,20.45
2017-06-20T22:38:02.299Z,20.41
2017-06-20T22:40:31.372Z,20.36
2017-06-20T22:43:00.518Z,20.32
2017-06-20T22:45:29.578Z,20.24
2017-06-20T22:47:58.669Z,20.18
2017-06-20T22:50:27.765Z,20.18
2017-06-20T22:52:56.821Z,20.16
2017-06-20T22:55:25.883Z,20.13
2017-06-20T22:57:54.953Z,20.12
2017-06-20T23:00:24.007Z,20.10
2017-06-20T23:02:53.058Z,20.01
2017-06-20T23:05:22.124Z,19.89
2017-06-20T23:07:51.205Z,19.84
2017-06-20T23:10:20.404Z,19.78
2017-06-20T23:12:49.492Z,19.76
2017-06-20T23:15:18.752Z,19.74
2017-06-20T23:17:47.828Z,19.61
2017-06-20T23:20:16.932Z,19.53
2017-06-20T23:22:45.968Z,19.45
2017-06-20T23:25:15.088Z,19.39
2017-06-20T23:27:44.144Z,19.35
2017-06-20T23:30:13.222Z,19.33
2017-06-20T23:32:42.296Z,19.25
2017-06-20T23:35:11.348Z,19.20
2017-06-20T23:37:40.414Z,19.11
2017-06-20T23:40:09.493Z,19.03
2017-06-20T23:42:38.508Z,18.98
2017-06-20T23:45:07.651Z,18.92
2017-06-20T23:47:36.684Z,18.86
2017-06-20T23:50:05.989Z,18.81
2017-06-20T23:52:35.032Z,18.76
2017-06-20T23:55:04.090Z,18.73
2017-06-20T23:57:33.188Z,18.66
